Time,TemperatureF,DewpointF,PressureIn,WindDirection,WindDirectionDegrees,WindSpeedMPH,WindSpeedGustMPH,Humidity,HourlyPrecipIn,Conditions,Clouds,dailyrainin,SoftwareType,DateUTC
2013-01-14 00:02:00,3.9,-8.0,29.95,ESE,113,4.0,6.0,57,0.00,,,0.01,meteohub,2013-01-14 08:02:00,
2013-01-14 00:07:00,3.7,-7.8,29.95,SE,135,4.0,6.0,58,0.00,,,0.00,meteohub,2013-01-14 08:07:00,
2013-01-14 00:12:00,4.3,-7.6,29.95,SE,135,2.0,4.0,57,0.00,,,0.00,meteohub,2013-01-14 08:12:00,
2013-01-14 00:17:00,4.3,-7.6,29.95,East,90,4.0,4.0,57,0.00,,,0.00,meteohub,2013-01-14 08:17:00,
2013-01-14 00:22:00,4.5,-7.4,29.95,East,90,4.0,4.0,57,0.00,,,0.00,meteohub,2013-01-14 08:22:00,
2013-01-14 00:27:00,3.9,-8.3,29.95,ENE,68,5.0,5.0,56,0.00,,,0.00,meteohub,2013-01-14 08:27:00,
2013-01-14 00:32:00,4.8,-7.1,29.95,ESE,113,5.0,8.0,57,0.00,,,0.00,meteohub,2013-01-14 08:32:00,
2013-01-14 00:37:00,5.0,-7.2,29.95,East,90,8.0,8.0,56,0.00,,,0.00,meteohub,2013-01-14 08:37:00,
2013-01-14 00:42:00,5.5,-6.7,29.95,East,90,4.0,8.0,56,0.00,,,0.00,meteohub,2013-01-14 08:42:00,
2013-01-14 00:47:00,5.9,-6.9,29.95,East,90,6.0,8.0,55,0.00,,,0.00,meteohub,2013-01-14 08:47:00,
2013-01-14 00:52:00,6.1,-6.7,29.95,SE,135,5.0,8.0,55,0.00,,,0.00,meteohub,2013-01-14 08:52:00,
2013-01-14 00:57:00,6.1,-7.1,29.95,SE,135,7.0,8.0,54,0.00,,,0.00,meteohub,2013-01-14 08:57:00,
2013-01-14 01:02:00,6.1,-7.1,29.96,SE,135,4.0,8.0,54,0.00,,,0.00,meteohub,2013-01-14 09:02:00,
2013-01-14 01:07:00,6.1,-7.1,29.96,NE,45,3.0,7.0,54,0.00,,,0.00,meteohub,2013-01-14 09:07:00,
2013-01-14 01:12:00,5.4,-8.1,29.96,SE,135,4.0,7.0,53,0.00,,,0.00,meteohub,2013-01-14 09:12:00,
2013-01-14 01:17:00,5.0,-7.6,29.96,SE,135,5.0,6.0,55,0.00,,,0.00,meteohub,2013-01-14 09:17:00,
2013-01-14 01:22:00,5.5,-7.1,29.96,SE,135,3.0,7.0,55,0.00,,,0.00,meteohub,2013-01-14 09:22:00,
2013-01-14 01:27:00,5.5,-7.1,29.95,SE,135,1.0,7.0,55,0.00,,,0.00,meteohub,2013-01-14 09:27:00,
2013-01-14 01:32:00,4.5,-8.1,29.96,North,0,1.0,7.0,55,0.00,,,0.00,meteohub,2013-01-14 09:32:00,
2013-01-14 01:37:00,4.1,-8.5,29.96,North,0,2.0,5.0,55,0.00,,,0.00,meteohub,2013-01-14 09:37:00,
2013-01-14 01:42:00,4.5,-7.4,29.96,East,90,4.0,8.0,57,0.00,,,0.00,meteohub,2013-01-14 09:42:00,
2013-01-14 01:47:00,5.0,-7.2,29.96,East,90,2.0,8.0,56,0.00,,,0.00,meteohub,2013-01-14 09:47:00,
2013-01-14 01:52:00,4.5,-7.8,29.97,East,90,0.0,8.0,56,0.00,,,0.00,meteohub,2013-01-14 09:52:00,
2013-01-14 01:57:00,3.9,-8.3,29.97,East,90,1.0,4.0,56,0.00,,,0.00,meteohub,2013-01-14 09:57:00,
2013-01-14 02:02:00,3.2,-8.7,29.97,East,90,2.0,2.0,57,0.00,,,0.00,meteohub,2013-01-14 10:02:00,
2013-01-14 02:07:00,2.8,-8.5,29.97,East,90,1.0,2.0,58,0.00,,,0.00,meteohub,2013-01-14 10:07:00,
2013-01-14 02:12:00,2.3,-9.0,29.97,East,90,2.0,2.0,58,0.00,,,0.00,meteohub,2013-01-14 10:12:00,
2013-01-14 02:17:00,1.9,-9.0,29.97,East,90,2.0,2.0,59,0.00,,,0.00,meteohub,2013-01-14 10:17:00,
2013-01-14 02:22:00,1.9,-8.7,29.97,East,90,2.0,2.0,60,0.00,,,0.00,meteohub,2013-01-14 10:22:00,
2013-01-14 02:27:00,1.8,-8.5,29.97,South,180,2.0,2.0,61,0.00,,,0.00,meteohub,2013-01-14 10:27:00,
2013-01-14 02:32:00,1.8,-8.3,29.97,South,180,1.0,2.0,62,0.00,,,0.00,meteohub,2013-01-14 10:32:00,
2013-01-14 02:38:00,1.6,-8.7,29.97,South,180,2.0,2.0,61,0.00,,,0.00,meteohub,2013-01-14 10:38:00,
2013-01-14 02:43:00,1.4,-8.9,29.97,SE,135,3.0,3.0,61,0.00,,,0.00,meteohub,2013-01-14 10:43:00,
2013-01-14 02:48:00,1.2,-9.0,29.98,SE,135,1.0,4.0,61,0.00,,,0.00,meteohub,2013-01-14 10:48:00,
2013-01-14 02:53:00,1.2,-8.7,29.97,SE,135,2.0,4.0,62,0.00,,,0.00,meteohub,2013-01-14 10:53:00,
2013-01-14 02:58:00,1.0,-8.9,29.97,SE,135,2.0,4.0,62,0.00,,,0.00,meteohub,2013-01-14 10:58:00,
2013-01-14 03:03:00,0.7,-9.6,29.97,SW,225,1.0,4.0,61,0.00,,,0.00,meteohub,2013-01-14 11:03:00,
2013-01-14 03:08:00,0.0,-9.9,29.97,SE,135,4.0,4.0,62,0.00,,,0.00,meteohub,2013-01-14 11:08:00,
2013-01-14 03:13:00,0.1,-9.4,29.96,South,180,3.0,4.0,63,0.00,,,0.00,meteohub,2013-01-14 11:13:00,
2013-01-14 03:18:00,-0.4,-10.3,29.97,South,180,1.0,4.0,62,0.00,,,0.00,meteohub,2013-01-14 11:18:00,
2013-01-14 03:23:00,-0.6,-9.8,29.97,South,180,2.0,4.0,64,0.00,,,0.00,meteohub,2013-01-14 11:23:00,
2013-01-14 03:28:00,-0.6,-9.8,29.97,South,180,1.0,4.0,64,0.00,,,0.00,meteohub,2013-01-14 11:28:00,
2013-01-14 03:33:00,-1.1,-10.7,29.96,SE,135,1.0,3.0,63,0.00,,,0.00,meteohub,2013-01-14 11:33:00,
2013-01-14 03:38:00,-0.2,-8.9,29.96,SE,135,2.0,4.0,66,0.00,,,0.00,meteohub,2013-01-14 11:38:00,
2013-01-14 03:43:00,1.4,-7.6,29.97,SE,135,1.0,5.0,65,0.00,,,0.00,meteohub,2013-01-14 11:43:00,
2013-01-14 03:48:00,1.8,-8.0,29.96,SE,135,3.0,7.0,63,0.00,,,0.00,meteohub,2013-01-14 11:48:00,
2013-01-14 03:53:00,2.5,-7.2,29.97,South,180,2.0,7.0,63,0.00,,,0.00,meteohub,2013-01-14 11:53:00,
2013-01-14 03:58:00,2.5,-8.0,29.97,South,180,0.0,7.0,61,0.00,,,0.00,meteohub,2013-01-14 11:58:00,
2013-01-14 04:03:00,1.2,-9.8,29.97,South,180,2.0,4.0,59,0.00,,,0.00,meteohub,2013-01-14 12:03:00,
2013-01-14 04:08:00,0.7,-9.6,29.97,SE,135,3.0,4.0,61,0.00,,,0.00,meteohub,2013-01-14 12:08:00,
2013-01-14 04:13:00,0.7,-9.6,29.97,South,180,2.0,4.0,61,0.00,,,0.00,meteohub,2013-01-14 12:13:00,
2013-01-14 04:18:00,0.9,-9.4,29.97,South,180,1.0,4.0,61,0.00,,,0.00,meteohub,2013-01-14 12:18:00,
2013-01-14 04:23:00,0.5,-9.8,29.96,SE,135,2.0,4.0,61,0.00,,,0.00,meteohub,2013-01-14 12:23:00,
2013-01-14 04:28:00,0.7,-10.3,29.96,SE,135,8.0,8.0,59,0.00,,,0.00,meteohub,2013-01-14 12:28:00,
2013-01-14 04:33:00,2.7,-9.8,29.96,East,90,4.0,10.0,55,0.00,,,0.00,meteohub,2013-01-14 12:33:00,
2013-01-14 04:38:00,4.3,-10.3,29.97,NE,45,4.0,10.0,50,0.00,,,0.00,meteohub,2013-01-14 12:38:00,
2013-01-14 04:43:00,5.0,-10.8,29.97,SE,135,5.0,10.0,47,0.00,,,0.00,meteohub,2013-01-14 12:43:00,
2013-01-14 04:48:00,5.4,-10.5,29.96,ENE,68,4.0,10.0,47,0.00,,,0.00,meteohub,2013-01-14 12:48:00,
2013-01-14 04:53:00,5.4,-11.0,29.96,SE,135,6.0,8.0,46,0.00,,,0.00,meteohub,2013-01-14 12:53:00,
2013-01-14 04:58:00,5.2,-11.9,29.97,SE,135,5.0,8.0,44,0.00,,,0.00,meteohub,2013-01-14 12:58:00,
2013-01-14 05:03:00,5.4,-12.3,29.97,SE,135,8.0,8.0,43,0.00,,,0.00,meteohub,2013-01-14 13:03:00,
2013-01-14 05:08:00,5.2,-12.5,29.97,East,90,3.0,8.0,43,0.00,,,0.00,meteohub,2013-01-14 13:08:00,
2013-01-14 05:13:00,5.2,-12.5,29.97,East,90,3.0,8.0,43,0.00,,,0.00,meteohub,2013-01-14 13:13:00,
2013-01-14 05:18:00,4.8,-11.9,29.97,SE,135,2.0,8.0,45,0.00,,,0.00,meteohub,2013-01-14 13:18:00,
2013-01-14 05:24:00,3.9,-12.3,29.97,South,180,2.0,5.0,46,0.00,,,0.00,meteohub,2013-01-14 13:24:00,
2013-01-14 05:29:00,2.8,-11.9,29.97,South,180,2.0,5.0,49,0.00,,,0.00,meteohub,2013-01-14 13:29:00,
2013-01-14 05:34:00,2.7,-13.0,29.98,ESE,113,7.0,7.0,47,0.00,,,0.00,meteohub,2013-01-14 13:34:00,
2013-01-14 05:39:00,3.9,-14.1,29.96,SE,135,4.0,7.0,42,0.00,,,0.00,meteohub,2013-01-14 13:39:00,
2013-01-14 05:44:00,4.8,-13.7,29.97,SE,135,2.0,10.0,41,0.00,,,0.00,meteohub,2013-01-14 13:44:00,
2013-01-14 05:49:00,4.3,-13.4,29.97,SE,135,4.0,10.0,43,0.00,,,0.00,meteohub,2013-01-14 13:49:00,
2013-01-14 05:54:00,4.5,-14.1,29.97,SE,135,4.0,10.0,41,0.00,,,0.00,meteohub,2013-01-14 13:54:00,
2013-01-14 05:59:00,4.6,-14.4,29.97,SE,135,4.0,10.0,40,0.00,,,0.00,meteohub,2013-01-14 13:59:00,
2013-01-14 06:04:00,5.0,-14.6,29.97,SE,135,6.0,6.0,39,0.00,,,0.00,meteohub,2013-01-14 14:04:00,
2013-01-14 06:09:00,5.2,-15.0,29.98,East,90,6.0,6.0,38,0.00,,,0.00,meteohub,2013-01-14 14:09:00,
2013-01-14 06:14:00,4.1,-15.9,29.97,SE,135,4.0,9.0,38,0.00,,,0.00,meteohub,2013-01-14 14:14:00,
2013-01-14 06:19:00,3.7,-16.2,29.98,SE,135,7.0,9.0,38,0.00,,,0.00,meteohub,2013-01-14 14:19:00,
2013-01-14 06:24:00,4.5,-15.5,29.98,East,90,4.0,14.0,38,0.00,,,0.00,meteohub,2013-01-14 14:24:00,
2013-01-14 06:29:00,4.8,-16.2,29.99,NE,45,8.0,14.0,36,0.00,,,0.00,meteohub,2013-01-14 14:29:00,
2013-01-14 06:34:00,5.5,-16.8,29.98,ESE,113,8.0,14.0,34,0.00,,,0.00,meteohub,2013-01-14 14:34:00,
2013-01-14 06:39:00,5.4,-16.4,29.99,East,90,4.0,11.0,35,0.00,,,0.00,meteohub,2013-01-14 14:39:00,
2013-01-14 06:44:00,5.5,-16.2,29.99,East,90,4.0,11.0,35,0.00,,,0.00,meteohub,2013-01-14 14:44:00,
2013-01-14 06:49:00,5.5,-16.2,29.99,SSW,203,2.0,8.0,35,0.00,,,0.00,meteohub,2013-01-14 14:49:00,
2013-01-14 06:54:00,5.4,-15.9,29.99,East,90,2.0,8.0,36,0.00,,,0.00,meteohub,2013-01-14 14:54:00,
2013-01-14 06:59:00,6.1,-16.8,30.00,SE,135,8.0,8.0,33,0.00,,,0.00,meteohub,2013-01-14 14:59:00,
2013-01-14 07:04:00,7.2,-16.4,30.00,South,180,4.0,9.0,32,0.00,,,0.00,meteohub,2013-01-14 15:04:00,
2013-01-14 07:09:00,7.0,-16.6,30.00,SE,135,3.0,9.0,32,0.00,,,0.00,meteohub,2013-01-14 15:09:00,
2013-01-14 07:14:00,6.3,-16.8,30.01,East,90,6.0,9.0,33,0.00,,,0.00,meteohub,2013-01-14 15:14:00,
2013-01-14 07:19:00,5.5,-17.3,30.01,East,90,3.0,9.0,33,0.00,,,0.00,meteohub,2013-01-14 15:19:00,
2013-01-14 07:24:00,5.2,-17.1,30.01,East,90,4.0,6.0,34,0.00,,,0.00,meteohub,2013-01-14 15:24:00,
2013-01-14 07:29:00,5.2,-17.1,30.01,SE,135,7.0,7.0,34,0.00,,,0.00,meteohub,2013-01-14 15:29:00,
2013-01-14 07:34:00,7.0,-15.5,30.01,East,90,4.0,6.0,34,0.00,,,0.00,meteohub,2013-01-14 15:34:00,
2013-01-14 07:39:00,8.2,-16.2,30.01,East,90,7.0,7.0,31,0.00,,,0.00,meteohub,2013-01-14 15:39:00,
2013-01-14 07:44:00,9.1,-16.6,30.02,SE,135,11.0,11.0,29,0.00,,,0.00,meteohub,2013-01-14 15:44:00,
2013-01-14 07:49:00,9.9,-16.1,30.02,NE,45,8.0,11.0,29,0.00,,,0.00,meteohub,2013-01-14 15:49:00,
2013-01-14 07:54:00,10.4,-16.2,30.02,East,90,13.0,13.0,28,0.00,,,0.00,meteohub,2013-01-14 15:54:00,
2013-01-14 07:59:00,10.8,-15.9,30.03,South,180,11.0,15.0,28,0.00,,,0.00,meteohub,2013-01-14 15:59:00,
2013-01-14 08:04:00,10.9,-15.9,30.03,East,90,9.0,15.0,28,0.00,,,0.00,meteohub,2013-01-14 16:04:00,
2013-01-14 08:09:00,11.1,-15.7,30.03,NE,45,10.0,15.0,28,0.00,,,0.00,meteohub,2013-01-14 16:09:00,
2013-01-14 08:14:00,11.5,-15.3,30.03,East,90,4.0,15.0,28,0.00,,,0.00,meteohub,2013-01-14 16:14:00,
2013-01-14 08:19:00,11.7,-15.9,30.03,SE,135,8.0,15.0,27,0.00,,,0.00,meteohub,2013-01-14 16:19:00,
2013-01-14 08:24:00,11.8,-15.0,30.04,ENE,68,8.0,15.0,28,0.00,,,0.00,meteohub,2013-01-14 16:24:00,
2013-01-14 08:29:00,12.2,-14.6,30.04,East,90,8.0,11.0,28,0.00,,,0.00,meteohub,2013-01-14 16:29:00,
2013-01-14 08:34:00,12.2,-15.3,30.04,SE,135,15.0,15.0,27,0.00,,,0.00,meteohub,2013-01-14 16:34:00,
2013-01-14 08:39:00,12.2,-15.3,30.04,NE,45,11.0,15.0,27,0.00,,,0.00,meteohub,2013-01-14 16:39:00,
2013-01-14 08:44:00,12.2,-14.6,30.04,East,90,14.0,15.0,28,0.00,,,0.00,meteohub,2013-01-14 16:44:00,
2013-01-14 08:49:00,11.8,-15.7,30.04,NE,45,12.0,15.0,27,0.00,,,0.00,meteohub,2013-01-14 16:49:00,
2013-01-14 08:54:00,12.0,-15.5,30.04,East,90,11.0,15.0,27,0.00,,,0.00,meteohub,2013-01-14 16:54:00,
2013-01-14 08:59:00,12.0,-15.5,30.04,East,90,10.0,17.0,27,0.00,,,0.00,meteohub,2013-01-14 16:59:00,
2013-01-14 09:04:00,12.0,-14.1,30.04,SE,135,7.0,17.0,29,0.00,,,0.00,meteohub,2013-01-14 17:04:00,
2013-01-14 09:09:00,11.8,-15.0,30.04,SE,135,17.0,17.0,28,0.00,,,0.00,meteohub,2013-01-14 17:09:00,
2013-01-14 09:14:00,11.7,-15.9,30.04,East,90,15.0,15.0,27,0.00,,,0.00,meteohub,2013-01-14 17:14:00,
2013-01-14 09:19:00,11.8,-15.0,30.04,SE,135,11.0,18.0,28,0.00,,,0.00,meteohub,2013-01-14 17:19:00,
2013-01-14 09:24:00,12.9,-14.8,30.04,East,90,8.0,18.0,27,0.00,,,0.00,meteohub,2013-01-14 17:24:00,
2013-01-14 09:29:00,14.0,-14.6,30.04,NE,45,14.0,18.0,26,0.00,,,0.00,meteohub,2013-01-14 17:29:00,
2013-01-14 09:34:00,14.4,-15.0,30.04,ENE,68,11.0,15.0,25,0.00,,,0.00,meteohub,2013-01-14 17:34:00,
2013-01-14 09:39:00,14.7,-15.5,30.05,ESE,113,12.0,15.0,24,0.00,,,0.00,meteohub,2013-01-14 17:39:00,
2013-01-14 09:44:00,14.9,-16.2,30.04,NE,45,11.0,15.0,23,0.00,,,0.00,meteohub,2013-01-14 17:44:00,
2013-01-14 09:49:00,15.4,-15.0,30.04,East,90,8.0,15.0,24,0.00,,,0.00,meteohub,2013-01-14 17:49:00,
2013-01-14 09:54:00,15.6,-16.4,30.05,East,90,13.0,15.0,22,0.00,,,0.00,meteohub,2013-01-14 17:54:00,
2013-01-14 09:59:00,15.1,-17.0,30.05,North,0,11.0,15.0,22,0.00,,,0.00,meteohub,2013-01-14 17:59:00,
2013-01-14 10:04:00,14.9,-16.2,30.05,South,180,13.0,13.0,23,0.00,,,0.00,meteohub,2013-01-14 18:04:00,
2013-01-14 10:09:00,14.9,-16.2,30.05,SE,135,8.0,15.0,23,0.00,,,0.00,meteohub,2013-01-14 18:09:00,
2013-01-14 10:14:00,15.1,-17.0,30.05,NE,45,10.0,15.0,22,0.00,,,0.00,meteohub,2013-01-14 18:14:00,
2013-01-14 10:19:00,15.4,-16.6,30.05,East,90,10.0,15.0,22,0.00,,,0.00,meteohub,2013-01-14 18:19:00,
2013-01-14 10:24:00,15.8,-16.2,30.05,NE,45,4.0,11.0,22,0.00,,,0.00,meteohub,2013-01-14 18:24:00,
2013-01-14 10:29:00,16.5,-16.6,30.05,East,90,4.0,15.0,21,0.00,,,0.00,meteohub,2013-01-14 18:29:00,
2013-01-14 10:34:00,18.1,-15.3,30.05,NE,45,11.0,15.0,21,0.00,,,0.00,meteohub,2013-01-14 18:34:00,
2013-01-14 10:39:00,19.2,-15.3,30.06,NE,45,7.0,15.0,20,0.00,,,0.00,meteohub,2013-01-14 18:39:00,
2013-01-14 10:44:00,19.6,-19.3,30.06,North,0,10.0,13.0,16,0.00,,,0.00,meteohub,2013-01-14 18:44:00,
2013-01-14 10:50:00,19.8,-18.0,30.05,North,0,6.0,12.0,17,0.00,,,0.00,meteohub,2013-01-14 18:50:00,
2013-01-14 10:55:00,19.9,-19.1,30.05,SE,135,11.0,13.0,16,0.00,,,0.00,meteohub,2013-01-14 18:55:00,
2013-01-14 11:00:00,19.8,-19.1,30.05,North,0,7.0,13.0,16,0.00,,,0.00,meteohub,2013-01-14 19:00:00,
2013-01-14 11:05:00,19.6,-18.2,30.05,East,90,6.0,14.0,17,0.00,,,0.00,meteohub,2013-01-14 19:05:00,
2013-01-14 11:10:00,20.1,-17.7,30.04,East,90,11.0,17.0,17,0.00,,,0.00,meteohub,2013-01-14 19:10:00,
2013-01-14 11:15:00,20.3,-17.5,30.05,NE,45,8.0,17.0,17,0.00,,,0.00,meteohub,2013-01-14 19:15:00,
2013-01-14 11:20:00,20.1,-18.9,30.05,ESE,113,12.0,17.0,16,0.00,,,0.00,meteohub,2013-01-14 19:20:00,
2013-01-14 11:25:00,19.8,-18.0,30.05,SE,135,7.0,18.0,17,0.00,,,0.00,meteohub,2013-01-14 19:25:00,
2013-01-14 11:30:00,19.9,-16.8,30.05,NE,45,10.0,18.0,18,0.00,,,0.00,meteohub,2013-01-14 19:30:00,
2013-01-14 11:35:00,20.5,-18.6,30.05,East,90,10.0,18.0,16,0.00,,,0.00,meteohub,2013-01-14 19:35:00,
2013-01-14 11:40:00,19.9,-16.8,30.05,SE,135,7.0,13.0,18,0.00,,,0.00,meteohub,2013-01-14 19:40:00,
2013-01-14 11:45:00,19.9,-16.8,30.05,SE,135,8.0,11.0,18,0.00,,,0.00,meteohub,2013-01-14 19:45:00,
2013-01-14 11:50:00,19.8,-18.0,30.04,East,90,10.0,12.0,17,0.00,,,0.00,meteohub,2013-01-14 19:50:00,
2013-01-14 11:55:00,19.6,-18.2,30.05,East,90,8.0,12.0,17,0.00,,,0.00,meteohub,2013-01-14 19:55:00,
2013-01-14 12:00:00,19.6,-17.1,30.04,East,90,11.0,12.0,18,0.00,,,0.00,meteohub,2013-01-14 20:00:00,
2013-01-14 12:05:00,19.6,-18.2,30.04,NE,45,8.0,11.0,17,0.00,,,0.00,meteohub,2013-01-14 20:05:00,
2013-01-14 12:10:00,19.4,-19.5,30.05,NE,45,15.0,15.0,16,0.00,,,0.00,meteohub,2013-01-14 20:10:00,
2013-01-14 12:15:00,19.4,-18.4,30.05,ESE,113,15.0,15.0,17,0.00,,,0.00,meteohub,2013-01-14 20:15:00,
2013-01-14 12:20:00,19.6,-16.1,30.04,NE,45,11.0,15.0,19,0.00,,,0.00,meteohub,2013-01-14 20:20:00,
2013-01-14 12:25:00,19.8,-18.0,30.04,North,0,8.0,15.0,17,0.00,,,0.00,meteohub,2013-01-14 20:25:00,
2013-01-14 12:30:00,20.7,-17.3,30.05,North,0,10.0,15.0,17,0.00,,,0.00,meteohub,2013-01-14 20:30:00,
2013-01-14 12:35:00,20.8,-17.1,30.04,North,0,5.0,15.0,17,0.00,,,0.00,meteohub,2013-01-14 20:35:00,
2013-01-14 12:40:00,21.6,-15.3,30.05,NNE,23,11.0,15.0,18,0.00,,,0.00,meteohub,2013-01-14 20:40:00,
2013-01-14 12:45:00,21.4,-16.6,30.04,South,180,15.0,15.0,17,0.00,,,0.00,meteohub,2013-01-14 20:45:00,
2013-01-14 12:50:00,21.2,-18.0,30.04,NE,45,9.0,17.0,16,0.00,,,0.00,meteohub,2013-01-14 20:50:00,
2013-01-14 12:55:00,21.6,-16.6,30.04,SE,135,10.0,17.0,17,0.00,,,0.00,meteohub,2013-01-14 20:55:00,
2013-01-14 13:00:00,21.7,-16.4,30.04,NE,45,16.0,17.0,17,0.00,,,0.00,meteohub,2013-01-14 21:00:00,
2013-01-14 13:05:00,21.7,-15.3,30.04,East,90,9.0,16.0,18,0.00,,,0.00,meteohub,2013-01-14 21:05:00,
2013-01-14 13:10:00,21.7,-15.3,30.04,NNE,23,9.0,16.0,18,0.00,,,0.00,meteohub,2013-01-14 21:10:00,
2013-01-14 13:15:00,21.4,-15.5,30.04,NE,45,5.0,16.0,18,0.00,,,0.00,meteohub,2013-01-14 21:15:00,
2013-01-14 13:20:00,21.6,-15.3,30.04,North,0,8.0,15.0,18,0.00,,,0.00,meteohub,2013-01-14 21:20:00,
2013-01-14 13:25:00,21.4,-15.5,30.05,North,0,10.0,15.0,18,0.00,,,0.00,meteohub,2013-01-14 21:25:00,
2013-01-14 13:30:00,20.8,-15.0,30.04,NE,45,9.0,15.0,19,0.00,,,0.00,meteohub,2013-01-14 21:30:00,
2013-01-14 13:35:00,20.8,-15.0,30.05,NNE,23,5.0,17.0,19,0.00,,,0.00,meteohub,2013-01-14 21:35:00,
2013-01-14 13:40:00,20.8,-15.0,30.05,SE,135,10.0,17.0,19,0.00,,,0.00,meteohub,2013-01-14 21:40:00,
2013-01-14 13:45:00,20.7,-15.2,30.06,East,90,8.0,17.0,19,0.00,,,0.00,meteohub,2013-01-14 21:45:00,
2013-01-14 13:50:00,20.7,-15.2,30.05,NNE,23,8.0,17.0,19,0.00,,,0.00,meteohub,2013-01-14 21:50:00,
2013-01-14 13:55:00,21.0,-15.9,30.06,East,90,7.0,15.0,18,0.00,,,0.00,meteohub,2013-01-14 21:55:00,
2013-01-14 14:00:00,21.2,-16.8,30.06,North,0,9.0,15.0,17,0.00,,,0.00,meteohub,2013-01-14 22:00:00,
2013-01-14 14:05:00,20.7,-16.2,30.06,East,90,5.0,14.0,18,0.00,,,0.00,meteohub,2013-01-14 22:05:00,
2013-01-14 14:10:00,20.3,-16.4,30.06,NNE,23,7.0,21.0,18,0.00,,,0.00,meteohub,2013-01-14 22:10:00,
2013-01-14 14:15:00,20.5,-15.3,30.06,East,90,8.0,21.0,19,0.00,,,0.00,meteohub,2013-01-14 22:15:00,
2013-01-14 14:20:00,20.5,-16.2,30.06,East,90,8.0,21.0,18,0.00,,,0.00,meteohub,2013-01-14 22:20:00,
2013-01-14 14:25:00,20.5,-16.2,30.06,NE,45,8.0,21.0,18,0.00,,,0.00,meteohub,2013-01-14 22:25:00,
2013-01-14 14:30:00,20.8,-16.1,30.06,North,0,16.0,17.0,18,0.00,,,0.00,meteohub,2013-01-14 22:30:00,
2013-01-14 14:35:00,20.8,-16.1,30.06,East,90,17.0,17.0,18,0.00,,,0.00,meteohub,2013-01-14 22:35:00,
2013-01-14 14:40:00,20.7,-15.2,30.06,East,90,7.0,17.0,19,0.00,,,0.00,meteohub,2013-01-14 22:40:00,
2013-01-14 14:45:00,20.8,-15.0,30.07,North,0,9.0,17.0,19,0.00,,,0.00,meteohub,2013-01-14 22:45:00,
2013-01-14 14:50:00,20.7,-15.2,30.07,North,0,4.0,17.0,19,0.00,,,0.00,meteohub,2013-01-14 22:50:00,
2013-01-14 14:55:00,20.7,-14.1,30.07,North,0,9.0,18.0,20,0.00,,,0.00,meteohub,2013-01-14 22:55:00,
2013-01-14 15:00:00,20.3,-15.3,30.07,North,0,4.0,18.0,19,0.00,,,0.00,meteohub,2013-01-14 23:00:00,
2013-01-14 15:05:00,20.1,-14.6,30.09,NW,315,21.0,21.0,20,0.00,,,0.00,meteohub,2013-01-14 23:05:00,
2013-01-14 15:10:00,20.1,-13.5,30.09,East,90,12.0,21.0,21,0.00,,,0.00,meteohub,2013-01-14 23:10:00,
2013-01-14 15:15:00,19.8,-13.9,30.09,SE,135,4.0,21.0,21,0.00,,,0.00,meteohub,2013-01-14 23:15:00,
2013-01-14 15:20:00,19.4,-14.3,30.09,East,90,7.0,21.0,21,0.00,,,0.00,meteohub,2013-01-14 23:20:00,
2013-01-14 15:25:00,19.2,-14.3,30.09,NE,45,5.0,21.0,21,0.00,,,0.00,meteohub,2013-01-14 23:25:00,
2013-01-14 15:30:00,19.2,-13.4,30.09,ESE,113,9.0,17.0,22,0.00,,,0.00,meteohub,2013-01-14 23:30:00,
2013-01-14 15:35:00,19.0,-13.5,30.09,East,90,11.0,16.0,22,0.00,,,0.00,meteohub,2013-01-14 23:35:00,
2013-01-14 15:41:00,18.7,-13.9,30.09,East,90,8.0,16.0,22,0.00,,,0.00,meteohub,2013-01-14 23:41:00,
2013-01-14 15:46:00,18.5,-13.2,30.09,East,90,8.0,16.0,23,0.00,,,0.00,meteohub,2013-01-14 23:46:00,
2013-01-14 15:51:00,18.7,-13.9,30.09,East,90,5.0,16.0,22,0.00,,,0.00,meteohub,2013-01-14 23:51:00,
2013-01-14 15:56:00,18.5,-12.3,30.10,NE,45,5.0,16.0,24,0.00,,,0.00,meteohub,2013-01-14 23:56:00,
2013-01-14 16:01:00,18.5,-12.3,30.09,East,90,7.0,16.0,24,0.00,,,0.00,meteohub,2013-01-15 00:01:00,
2013-01-14 16:06:00,18.5,-12.3,30.10,NE,45,7.0,17.0,24,0.00,,,0.00,meteohub,2013-01-15 00:06:00,
2013-01-14 16:11:00,18.5,-11.6,30.10,NE,45,8.0,17.0,25,0.00,,,0.00,meteohub,2013-01-15 00:11:00,
2013-01-14 16:16:00,18.5,-11.6,30.11,East,90,6.0,16.0,25,0.00,,,0.00,meteohub,2013-01-15 00:16:00,
2013-01-14 16:21:00,18.3,-11.6,30.11,ENE,68,11.0,17.0,25,0.00,,,0.00,meteohub,2013-01-15 00:21:00,
2013-01-14 16:26:00,18.1,-11.0,30.11,NE,45,13.0,17.0,26,0.00,,,0.00,meteohub,2013-01-15 00:26:00,
2013-01-14 16:31:00,18.3,-10.8,30.11,East,90,14.0,17.0,26,0.00,,,0.00,meteohub,2013-01-15 00:31:00,
2013-01-14 16:36:00,18.1,-10.3,30.10,North,0,5.0,16.0,27,0.00,,,0.00,meteohub,2013-01-15 00:36:00,
2013-01-14 16:41:00,18.0,-10.5,30.10,East,90,11.0,19.0,27,0.00,,,0.00,meteohub,2013-01-15 00:41:00,
2013-01-14 16:46:00,17.8,-10.5,30.10,SE,135,9.0,19.0,27,0.00,,,0.00,meteohub,2013-01-15 00:46:00,
2013-01-14 16:51:00,17.8,-9.8,30.10,East,90,11.0,19.0,28,0.00,,,0.00,meteohub,2013-01-15 00:51:00,
2013-01-14 16:56:00,17.4,-10.8,30.10,SE,135,7.0,17.0,27,0.00,,,0.00,meteohub,2013-01-15 00:56:00,
2013-01-14 17:01:00,17.2,-10.3,30.10,East,90,7.0,12.0,28,0.00,,,0.00,meteohub,2013-01-15 01:01:00,
2013-01-14 17:06:00,17.1,-9.8,30.11,East,90,8.0,12.0,29,0.00,,,0.00,meteohub,2013-01-15 01:06:00,
2013-01-14 17:11:00,16.9,-9.9,30.10,SE,135,8.0,14.0,29,0.00,,,0.00,meteohub,2013-01-15 01:11:00,
2013-01-14 17:16:00,16.7,-10.1,30.10,SE,135,7.0,14.0,29,0.00,,,0.00,meteohub,2013-01-15 01:16:00,
2013-01-14 17:21:00,16.5,-9.6,30.10,SE,135,8.0,11.0,30,0.00,,,0.00,meteohub,2013-01-15 01:21:00,
2013-01-14 17:26:00,16.2,-9.8,30.11,SE,135,8.0,12.0,30,0.00,,,0.00,meteohub,2013-01-15 01:26:00,
2013-01-14 17:31:00,16.3,-9.8,30.10,SE,135,5.0,13.0,30,0.00,,,0.00,meteohub,2013-01-15 01:31:00,
2013-01-14 17:36:00,16.3,-9.8,30.11,SE,135,8.0,13.0,30,0.00,,,0.00,meteohub,2013-01-15 01:36:00,
2013-01-14 17:41:00,16.3,-9.0,30.12,East,90,10.0,13.0,31,0.00,,,0.00,meteohub,2013-01-15 01:41:00,
2013-01-14 17:46:00,16.7,-8.7,30.12,SE,135,8.0,11.0,31,0.00,,,0.00,meteohub,2013-01-15 01:46:00,
2013-01-14 17:51:00,16.7,-8.7,30.12,SE,135,8.0,21.0,31,0.00,,,0.00,meteohub,2013-01-15 01:51:00,
2013-01-14 17:56:00,17.1,-8.3,30.11,East,90,13.0,21.0,31,0.00,,,0.00,meteohub,2013-01-15 01:56:00,
2013-01-14 18:01:00,17.1,-8.3,30.12,ESE,113,10.0,16.0,31,0.00,,,0.00,meteohub,2013-01-15 02:01:00,
2013-01-14 18:06:00,17.8,-7.1,30.12,ENE,68,9.0,16.0,32,0.00,,,0.00,meteohub,2013-01-15 02:06:00,
2013-01-14 18:11:00,18.5,-7.1,30.12,East,90,10.0,14.0,31,0.00,,,0.00,meteohub,2013-01-15 02:11:00,
2013-01-14 18:16:00,19.0,-6.0,30.12,North,0,7.0,15.0,32,0.00,,,0.00,meteohub,2013-01-15 02:16:00,
2013-01-14 18:21:00,19.2,-5.8,30.12,North,0,13.0,15.0,32,0.00,,,0.00,meteohub,2013-01-15 02:21:00,
2013-01-14 18:26:00,19.4,-5.6,30.12,WSW,248,5.0,16.0,32,0.00,,,0.00,meteohub,2013-01-15 02:26:00,
2013-01-14 18:31:00,19.4,-6.3,30.13,SE,135,8.0,16.0,31,0.00,,,0.00,meteohub,2013-01-15 02:31:00,
2013-01-14 18:36:00,19.4,-7.1,30.13,North,0,19.0,20.0,30,0.00,,,0.00,meteohub,2013-01-15 02:36:00,
2013-01-14 18:41:00,19.4,-6.3,30.13,ENE,68,11.0,20.0,31,0.00,,,0.00,meteohub,2013-01-15 02:41:00,
2013-01-14 18:47:00,19.4,-6.3,30.13,East,90,11.0,20.0,31,0.00,,,0.00,meteohub,2013-01-15 02:47:00,
2013-01-14 18:52:00,19.4,-6.3,30.13,NE,45,8.0,19.0,31,0.00,,,0.00,meteohub,2013-01-15 02:52:00,
2013-01-14 18:57:00,19.4,-6.3,30.13,ESE,113,15.0,19.0,31,0.00,,,0.00,meteohub,2013-01-15 02:57:00,
2013-01-14 19:02:00,19.4,-5.6,30.14,East,90,6.0,19.0,32,0.00,,,0.00,meteohub,2013-01-15 03:02:00,
2013-01-14 19:07:00,19.6,-6.2,30.13,NE,45,8.0,19.0,31,0.00,,,0.00,meteohub,2013-01-15 03:07:00,
2013-01-14 19:12:00,19.6,-6.2,30.13,NE,45,16.0,16.0,31,0.00,,,0.00,meteohub,2013-01-15 03:12:00,
2013-01-14 19:17:00,19.6,-6.2,30.14,NE,45,11.0,17.0,31,0.00,,,0.00,meteohub,2013-01-15 03:17:00,
2013-01-14 19:22:00,19.6,-6.2,30.14,NW,315,14.0,17.0,31,0.00,,,0.00,meteohub,2013-01-15 03:22:00,
2013-01-14 19:27:00,19.6,-5.4,30.14,NE,45,12.0,17.0,32,0.00,,,0.00,meteohub,2013-01-15 03:27:00,
2013-01-14 19:32:00,19.2,-6.5,30.14,East,90,6.0,15.0,31,0.00,,,0.00,meteohub,2013-01-15 03:32:00,
2013-01-14 19:37:00,18.9,-6.9,30.14,SE,135,13.0,15.0,31,0.00,,,0.00,meteohub,2013-01-15 03:37:00,
2013-01-14 19:45:00,18.5,-6.5,30.13,SE,135,8.0,15.0,32,0.00,,,0.00,meteohub,2013-01-15 03:45:00,
2013-01-14 19:50:00,18.1,-6.7,30.12,SE,135,11.0,15.0,32,0.00,,,0.00,meteohub,2013-01-15 03:50:00,
2013-01-14 19:55:00,18.3,-6.7,30.13,SE,135,6.0,14.0,32,0.00,,,0.00,meteohub,2013-01-15 03:55:00,
2013-01-14 20:00:00,18.3,-6.7,30.13,NE,45,10.0,11.0,32,0.00,,,0.00,meteohub,2013-01-15 04:00:00,
2013-01-14 20:05:00,18.3,-6.7,30.13,ESE,113,8.0,11.0,32,0.00,,,0.00,meteohub,2013-01-15 04:05:00,
2013-01-14 20:10:00,18.3,-6.7,30.13,SE,135,11.0,11.0,32,0.00,,,0.00,meteohub,2013-01-15 04:10:00,
2013-01-14 20:15:00,18.3,-6.7,30.14,NE,45,11.0,17.0,32,0.00,,,0.00,meteohub,2013-01-15 04:15:00,
2013-01-14 20:20:00,18.5,-6.5,30.14,East,90,9.0,17.0,32,0.00,,,0.00,meteohub,2013-01-15 04:20:00,
2013-01-14 20:25:00,18.9,-7.4,30.14,North,0,6.0,20.0,30,0.00,,,0.00,meteohub,2013-01-15 04:25:00,
2013-01-14 20:30:00,18.9,-7.4,30.14,NE,45,15.0,20.0,30,0.00,,,0.00,meteohub,2013-01-15 04:30:00,
2013-01-14 20:35:00,18.7,-7.6,30.15,NE,45,11.0,20.0,30,0.00,,,0.00,meteohub,2013-01-15 04:35:00,
2013-01-14 20:40:00,18.5,-7.1,30.15,NE,45,10.0,17.0,31,0.00,,,0.00,meteohub,2013-01-15 04:40:00,
2013-01-14 20:45:00,18.0,-7.6,30.15,SE,135,11.0,15.0,31,0.00,,,0.00,meteohub,2013-01-15 04:45:00,
2013-01-14 20:50:00,17.6,-7.2,30.14,SE,135,8.0,15.0,32,0.00,,,0.00,meteohub,2013-01-15 04:50:00,
2013-01-14 20:55:00,17.4,-6.7,30.15,SE,135,13.0,15.0,33,0.00,,,0.00,meteohub,2013-01-15 04:55:00,
2013-01-14 21:00:00,17.1,-7.1,30.15,South,180,11.0,15.0,33,0.00,,,0.00,meteohub,2013-01-15 05:00:00,
2013-01-14 21:01:00,17.1,-7.1,30.15,East,90,11.0,13.0,33,0.00,,,0.00,meteohub,2013-01-15 05:01:00,
2013-01-14 21:06:00,17.1,-7.1,30.15,East,90,8.0,17.0,33,0.00,,,0.00,meteohub,2013-01-15 05:06:00,
2013-01-14 21:11:00,16.9,-7.2,30.15,East,90,16.0,17.0,33,0.00,,,0.00,meteohub,2013-01-15 05:11:00,
2013-01-14 21:16:00,16.9,-7.2,30.14,East,90,10.0,17.0,33,0.00,,,0.00,meteohub,2013-01-15 05:16:00,
2013-01-14 21:21:00,17.1,-7.8,30.14,East,90,12.0,20.0,32,0.00,,,0.00,meteohub,2013-01-15 05:21:00,
2013-01-14 21:26:00,17.1,-7.8,30.14,SE,135,18.0,20.0,32,0.00,,,0.00,meteohub,2013-01-15 05:26:00,
2013-01-14 21:31:00,17.1,-7.1,30.14,East,90,7.0,20.0,33,0.00,,,0.00,meteohub,2013-01-15 05:31:00,
2013-01-14 21:36:00,16.9,-7.2,30.14,SE,135,8.0,18.0,33,0.00,,,0.00,meteohub,2013-01-15 05:36:00,
2013-01-14 21:41:00,16.9,-7.2,30.14,NE,45,8.0,18.0,33,0.00,,,0.00,meteohub,2013-01-15 05:41:00,
2013-01-14 21:46:00,16.5,-6.9,30.15,NE,45,17.0,17.0,34,0.00,,,0.00,meteohub,2013-01-15 05:46:00,
2013-01-14 21:52:00,16.5,-6.3,30.14,North,0,11.0,17.0,35,0.00,,,0.00,meteohub,2013-01-15 05:52:00,
2013-01-14 21:57:00,16.7,-5.6,30.14,East,90,11.0,17.0,36,0.00,,,0.00,meteohub,2013-01-15 05:57:00,
2013-01-14 22:02:00,16.9,-5.4,30.14,East,90,16.0,20.0,36,0.00,,,0.00,meteohub,2013-01-15 06:02:00,
2013-01-14 22:07:00,17.2,-5.1,30.15,SE,135,7.0,20.0,36,0.00,,,0.00,meteohub,2013-01-15 06:07:00,
2013-01-14 22:12:00,17.4,-4.4,30.14,SE,135,11.0,20.0,37,0.00,,,0.00,meteohub,2013-01-15 06:12:00,
2013-01-14 22:17:00,17.6,-4.2,30.14,East,90,6.0,16.0,37,0.00,,,0.00,meteohub,2013-01-15 06:17:00,
2013-01-14 22:22:00,17.6,-3.6,30.15,East,90,9.0,12.0,38,0.00,,,0.00,meteohub,2013-01-15 06:22:00,
2013-01-14 22:27:00,18.0,-3.5,30.15,SE,135,11.0,11.0,38,0.00,,,0.00,meteohub,2013-01-15 06:27:00,
2013-01-14 22:32:00,18.1,-3.3,30.14,SSE,158,6.0,11.0,38,0.00,,,0.00,meteohub,2013-01-15 06:32:00,
2013-01-14 22:37:00,18.7,-2.2,30.15,SE,135,10.0,11.0,39,0.00,,,0.00,meteohub,2013-01-15 06:37:00,
2013-01-14 22:42:00,18.7,-2.2,30.14,SE,135,11.0,13.0,39,0.00,,,0.00,meteohub,2013-01-15 06:42:00,
2013-01-14 22:47:00,19.6,-0.2,30.15,SE,135,9.0,13.0,41,0.00,,,0.00,meteohub,2013-01-15 06:47:00,
2013-01-14 22:52:00,19.9,0.0,30.15,North,0,21.0,23.0,41,0.00,,,0.00,meteohub,2013-01-15 06:52:00,
2013-01-14 22:57:00,20.8,0.3,30.15,SE,135,11.0,23.0,40,0.00,,,0.00,meteohub,2013-01-15 06:57:00,
2013-01-14 23:02:00,21.6,1.0,30.15,NE,45,14.0,21.0,40,0.00,,,0.00,meteohub,2013-01-15 07:02:00,
2013-01-14 23:07:00,21.7,1.0,30.15,East,90,14.0,26.0,40,0.00,,,0.00,meteohub,2013-01-15 07:07:00,
2013-01-14 23:12:00,21.9,1.8,30.15,South,180,8.0,26.0,41,0.00,,,0.00,meteohub,2013-01-15 07:12:00,
2013-01-14 23:17:00,21.6,1.0,30.15,East,90,9.0,21.0,40,0.00,,,0.00,meteohub,2013-01-15 07:17:00,
2013-01-14 23:22:00,21.4,0.9,30.14,ESE,113,6.0,18.0,40,0.00,,,0.00,meteohub,2013-01-15 07:22:00,
2013-01-14 23:27:00,21.0,1.6,30.14,NE,45,9.0,18.0,42,0.00,,,0.00,meteohub,2013-01-15 07:27:00,
2013-01-14 23:32:00,21.4,1.8,30.14,SE,135,16.0,18.0,42,0.00,,,0.00,meteohub,2013-01-15 07:32:00,
2013-01-14 23:37:00,21.4,0.9,30.14,East,90,13.0,16.0,40,0.00,,,0.00,meteohub,2013-01-15 07:37:00,
2013-01-14 23:42:00,21.0,1.6,30.15,NNE,23,13.0,17.0,42,0.00,,,0.00,meteohub,2013-01-15 07:42:00,
2013-01-14 23:47:00,21.2,1.2,30.16,SE,135,15.0,17.0,41,0.00,,,0.00,meteohub,2013-01-15 07:47:00,
2013-01-14 23:52:00,21.0,1.6,30.15,East,90,15.0,17.0,42,0.00,,,0.00,meteohub,2013-01-15 07:52:00,
2013-01-14 23:57:00,21.0,1.6,30.15,SSE,158,11.0,15.0,42,0.00,,,0.00,meteohub,2013-01-15 07:57:00,